sensor_id;sensor_type;location;lat;lon;timestamp;pressure;altitude;pressure_sealevel;temperature;humidity
12785;BME280;6456;42.680;23.260;2023-03-03T00:01:13;94701.97;;;5.31;100.00
12785;BME280;6456;42.680;23.260;2023-03-03T00:03:40;94701.53;;;5.28;100.00
12785;BME280;6456;42.680;23.260;2023-03-03T00:06:09;94710.59;;;5.32;100.00
12785;BME280;6456;42.680;23.260;2023-03-03T00:08:38;94698.44;;;5.24;100.00
12785;BME280;6456;42.680;23.260;2023-03-03T00:11:05;94699.63;;;5.36;100.00
12785;BME280;6456;42.680;23.260;2023-03-03T00:13:40;94700.16;;;5.32;100.00
12785;BME280;6456;42.680;23.260;2023-03-03T00:16:13;94700.44;;;5.37;100.00
12785;BME280;6456;42.680;23.260;2023-03-03T00:18:42;94699.75;;;5.43;100.00
12785;BME280;6456;42.680;23.260;2023-03-03T00:21:22;94692.53;;;5.45;100.00
12785;BME280;6456;42.680;23.260;2023-03-03T00:23:52;94624.97;;;5.06;100.00
12785;BME280;6456;42.680;23.260;2023-03-03T00:26:22;94697.13;;;5.57;100.00
12785;BME280;6456;42.680;23.260;2023-03-03T00:28:50;94700.91;;;5.55;100.00
12785;BME280;6456;42.680;23.260;2023-03-03T00:31:19;94592.84;;;5.05;100.00
12785;BME280;6456;42.680;23.260;2023-03-03T00:33:48;94623.59;;;5.25;100.00
12785;BME280;6456;42.680;23.260;2023-03-03T00:36:32;94674.09;;;5.61;100.00
12785;BME280;6456;42.680;23.260;2023-03-03T00:39:18;94669.94;;;5.66;100.00
12785;BME280;6456;42.680;23.260;2023-03-03T00:41:47;94683.44;;;5.70;100.00
12785;BME280;6456;42.680;23.260;2023-03-03T00:44:39;94678.56;;;5.67;100.00
12785;BME280;6456;42.680;23.260;2023-03-03T00:47:23;94656.63;;;5.47;100.00
12785;BME280;6456;42.680;23.260;2023-03-03T00:49:51;94670.94;;;5.51;100.00
12785;BME280;6456;42.680;23.260;2023-03-03T00:52:18;94667.06;;;5.61;100.00
12785;BME280;6456;42.680;23.260;2023-03-03T00:54:47;94598.22;;;5.18;100.00
12785;BME280;6456;42.680;23.260;2023-03-03T00:57:13;94665.44;;;5.60;100.00
12785;BME280;6456;42.680;23.260;2023-03-03T00:59:40;94583.84;;;5.23;100.00
12785;BME280;6456;42.680;23.260;2023-03-03T01:02:07;94656.44;;;5.77;100.00
12785;BME280;6456;42.680;23.260;2023-03-03T01:04:34;94648.84;;;5.82;100.00
12785;BME280;6456;42.680;23.260;2023-03-03T01:07:01;94652.56;;;5.88;100.00
12785;BME280;6456;42.680;23.260;2023-03-03T01:09:27;94648.84;;;5.97;100.00
12785;BME280;6456;42.680;23.260;2023-03-03T01:11:56;94648.16;;;5.89;100.00
12785;BME280;6456;42.680;23.260;2023-03-03T01:14:22;94560.16;;;5.39;100.00
12785;BME280;6456;42.680;23.260;2023-03-03T01:16:49;94636.47;;;5.85;100.00
12785;BME280;6456;42.680;23.260;2023-03-03T01:19:16;94648.13;;;6.03;100.00
12785;BME280;6456;42.680;23.260;2023-03-03T01:21:43;94537.78;;;5.30;100.00
12785;BME280;6456;42.680;23.260;2023-03-03T01:24:10;94652.81;;;6.08;100.00
12785;BME280;6456;42.680;23.260;2023-03-03T01:26:37;94648.41;;;6.08;100.00
12785;BME280;6456;42.680;23.260;2023-03-03T01:29:05;94644.41;;;6.12;100.00
12785;BME280;6456;42.680;23.260;2023-03-03T01:31:32;94651.25;;;6.13;100.00
12785;BME280;6456;42.680;23.260;2023-03-03T01:33:59;94587.66;;;5.70;100.00
12785;BME280;6456;42.680;23.260;2023-03-03T01:36:27;94651.25;;;6.13;100.00
12785;BME280;6456;42.680;23.260;2023-03-03T01:38:54;94645.00;;;5.93;100.00
12785;BME280;6456;42.680;23.260;2023-03-03T01:41:20;94638.72;;;5.88;100.00
12785;BME280;6456;42.680;23.260;2023-03-03T01:43:49;94640.75;;;5.77;100.00
12785;BME280;6456;42.680;23.260;2023-03-03T01:46:30;94614.13;;;5.67;100.00
12785;BME280;6456;42.680;23.260;2023-03-03T01:49:01;94639.59;;;5.80;100.00
12785;BME280;6456;42.680;23.260;2023-03-03T01:51:31;94637.59;;;5.82;100.00
12785;BME280;6456;42.680;23.260;2023-03-03T01:54:01;94612.78;;;5.57;100.00
12785;BME280;6456;42.680;23.260;2023-03-03T01:56:28;94637.97;;;5.79;100.00
12785;BME280;6456;42.680;23.260;2023-03-03T01:58:59;94632.88;;;5.71;100.00
12785;BME280;6456;42.680;23.260;2023-03-03T02:01:30;94459.34;;;4.66;100.00
12785;BME280;6456;42.680;23.260;2023-03-03T02:03:57;94533.44;;;5.01;100.00
12785;BME280;6456;42.680;23.260;2023-03-03T02:06:27;94479.56;;;4.49;100.00
12785;BME280;6456;42.680;23.260;2023-03-03T02:08:59;94630.16;;;5.50;100.00
12785;BME280;6456;42.680;23.260;2023-03-03T02:11:29;94616.66;;;5.46;100.00
12785;BME280;6456;42.680;23.260;2023-03-03T02:13:57;94625.94;;;5.49;100.00
12785;BME280;6456;42.680;23.260;2023-03-03T02:16:25;94632.78;;;5.50;100.00
12785;BME280;6456;42.680;23.260;2023-03-03T02:18:53;94563.00;;;4.93;100.00
12785;BME280;6456;42.680;23.260;2023-03-03T02:21:22;94515.97;;;4.72;100.00
12785;BME280;6456;42.680;23.260;2023-03-03T02:23:57;94627.94;;;5.32;100.00
12785;BME280;6456;42.680;23.260;2023-03-03T02:26:28;94630.19;;;5.35;100.00
12785;BME280;6456;42.680;23.260;2023-03-03T02:28:57;94545.81;;;4.84;100.00
12785;BME280;6456;42.680;23.260;2023-03-03T02:31:26;94625.03;;;5.42;100.00
12785;BME280;6456;42.680;23.260;2023-03-03T02:33:54;94563.97;;;4.92;100.00
12785;BME280;6456;42.680;23.260;2023-03-03T02:36:22;94630.34;;;5.34;100.00
12785;BME280;6456;42.680;23.260;2023-03-03T02:38:54;94631.78;;;5.36;100.00
12785;BME280;6456;42.680;23.260;2023-03-03T02:41:32;94612.28;;;5.17;100.00
12785;BME280;6456;42.680;23.260;2023-03-03T02:44:02;94631.97;;;5.35;100.00
12785;BME280;6456;42.680;23.260;2023-03-03T02:46:32;94626.22;;;5.39;100.00
12785;BME280;6456;42.680;23.260;2023-03-03T02:48:59;94512.38;;;4.73;100.00
12785;BME280;6456;42.680;23.260;2023-03-03T02:51:26;94606.06;;;5.33;100.00
12785;BME280;6456;42.680;23.260;2023-03-03T02:53:53;94578.72;;;5.14;100.00
12785;BME280;6456;42.680;23.260;2023-03-03T02:56:20;94616.41;;;5.56;100.00
12785;BME280;6456;42.680;23.260;2023-03-03T02:58:49;94627.38;;;5.66;100.00
12785;BME280;6456;42.680;23.260;2023-03-03T03:01:15;94620.25;;;5.74;100.00
12785;BME280;6456;42.680;23.260;2023-03-03T03:03:42;94545.88;;;5.35;100.00
12785;BME280;6456;42.680;23.260;2023-03-03T03:06:09;94616.09;;;5.95;100.00
12785;BME280;6456;42.680;23.260;2023-03-03T03:08:36;94621.41;;;5.87;100.00
12785;BME280;6456;42.680;23.260;2023-03-03T03:11:04;94524.47;;;5.25;100.00
12785;BME280;6456;42.680;23.260;2023-03-03T03:13:31;94613.56;;;5.87;100.00
12785;BME280;6456;42.680;23.260;2023-03-03T03:16:00;94617.53;;;5.97;100.00
12785;BME280;6456;42.680;23.260;2023-03-03T03:18:27;94486.84;;;4.98;100.00
12785;BME280;6456;42.680;23.260;2023-03-03T03:20:54;94611.31;;;5.98;100.00
12785;BME280;6456;42.680;23.260;2023-03-03T03:23:20;94580.50;;;5.58;100.00
12785;BME280;6456;42.680;23.260;2023-03-03T03:25:47;94614.28;;;5.95;100.00
12785;BME280;6456;42.680;23.260;2023-03-03T03:28:16;94607.19;;;5.89;100.00
12785;BME280;6456;42.680;23.260;2023-03-03T03:30:43;94601.94;;;5.89;100.00
12785;BME280;6456;42.680;23.260;2023-03-03T03:33:11;94616.19;;;6.01;100.00
12785;BME280;6456;42.680;23.260;2023-03-03T03:35:38;94485.94;;;5.05;100.00
12785;BME280;6456;42.680;23.260;2023-03-03T03:38:10;94615.25;;;5.94;100.00
12785;BME280;6456;42.680;23.260;2023-03-03T03:40:37;94605.72;;;6.01;100.00
12785;BME280;6456;42.680;23.260;2023-03-03T03:43:03;94559.22;;;5.75;100.00
12785;BME280;6456;42.680;23.260;2023-03-03T03:45:30;94600.09;;;6.04;100.00
12785;BME280;6456;42.680;23.260;2023-03-03T03:47:57;94607.78;;;6.06;100.00
12785;BME280;6456;42.680;23.260;2023-03-03T03:50:25;94542.22;;;5.65;100.00
12785;BME280;6456;42.680;23.260;2023-03-03T03:52:52;94598.50;;;6.03;100.00
12785;BME280;6456;42.680;23.260;2023-03-03T03:55:19;94611.44;;;6.11;100.00
12785;BME280;6456;42.680;23.260;2023-03-03T03:57:47;94597.19;;;6.14;100.00
12785;BME280;6456;42.680;23.260;2023-03-03T04:00:19;94571.31;;;5.98;100.00
12785;BME280;6456;42.680;23.260;2023-03-03T04:02:48;94602.72;;;6.04;100.00
12785;BME280;6456;42.680;23.260;2023-03-03T04:05:15;94599.38;;;6.10;100.00
12785;BME280;6456;42.680;23.260;2023-03-03T04:07:43;94529.22;;;5.71;100.00
12785;BME280;6456;42.680;23.260;2023-03-03T04:10:10;94594.56;;;6.14;100.00
12785;BME280;6456;42.680;23.260;2023-03-03T04:12:37;94549.09;;;5.87;100.00
12785;BME280;6456;42.680;23.260;2023-03-03T04:15:06;94553.34;;;5.88;100.00
12785;BME280;6456;42.680;23.260;2023-03-03T04:17:34;94593.34;;;6.10;100.00
12785;BME280;6456;42.680;23.260;2023-03-03T04:20:01;94595.75;;;6.11;100.00
12785;BME280;6456;42.680;23.260;2023-03-03T04:22:29;94590.94;;;6.08;100.00
12785;BME280;6456;42.680;23.260;2023-03-03T04:24:59;94593.72;;;6.07;100.00
12785;BME280;6456;42.680;23.260;2023-03-03T04:27:30;94532.84;;;5.70;100.00
12785;BME280;6456;42.680;23.260;2023-03-03T04:29:56;94585.44;;;6.03;100.00
12785;BME280;6456;42.680;23.260;2023-03-03T04:32:23;94567.38;;;5.87;100.00
12785;BME280;6456;42.680;23.260;2023-03-03T04:34:50;94570.63;;;5.89;100.00
12785;BME280;6456;42.680;23.260;2023-03-03T04:37:17;94590.22;;;6.00;100.00
12785;BME280;6456;42.680;23.260;2023-03-03T04:39:44;94588.44;;;6.00;100.00
12785;BME280;6456;42.680;23.260;2023-03-03T04:42:12;94589.03;;;6.02;100.00
12785;BME280;6456;42.680;23.260;2023-03-03T04:44:39;94591.66;;;6.02;100.00
12785;BME280;6456;42.680;23.260;2023-03-03T04:47:06;94586.44;;;6.02;100.00
12785;BME280;6456;42.680;23.260;2023-03-03T04:49:33;94586.88;;;6.06;100.00
12785;BME280;6456;42.680;23.260;2023-03-03T04:52:00;94584.63;;;6.03;100.00
12785;BME280;6456;42.680;23.260;2023-03-03T04:54:27;94592.88;;;6.06;100.00
12785;BME280;6456;42.680;23.260;2023-03-03T04:56:54;94593.72;;;6.07;100.00
12785;BME280;6456;42.680;23.260;2023-03-03T04:59:22;94578.66;;;5.88;100.00
12785;BME280;6456;42.680;23.260;2023-03-03T05:01:49;94580.94;;;5.97;100.00
12785;BME280;6456;42.680;23.260;2023-03-03T05:04:16;94545.53;;;5.73;100.00
12785;BME280;6456;42.680;23.260;2023-03-03T05:06:43;94550.00;;;5.79;100.00
12785;BME280;6456;42.680;23.260;2023-03-03T05:09:10;94598.19;;;6.13;100.00
12785;BME280;6456;42.680;23.260;2023-03-03T05:11:36;94599.63;;;6.15;100.00
12785;BME280;6456;42.680;23.260;2023-03-03T05:14:03;94603.47;;;6.19;100.00
12785;BME280;6456;42.680;23.260;2023-03-03T05:16:33;94600.69;;;6.21;100.00
12785;BME280;6456;42.680;23.260;2023-03-03T05:19:00;94590.94;;;6.08;100.00
12785;BME280;6456;42.680;23.260;2023-03-03T05:21:27;94445.91;;;5.13;100.00
12785;BME280;6456;42.680;23.260;2023-03-03T05:23:54;94605.22;;;6.12;100.00
12785;BME280;6456;42.680;23.260;2023-03-03T05:26:21;94607.22;;;6.10;100.00
12785;BME280;6456;42.680;23.260;2023-03-03T05:28:47;94598.88;;;6.00;100.00
12785;BME280;6456;42.680;23.260;2023-03-03T05:31:14;94605.34;;;6.04;100.00
12785;BME280;6456;42.680;23.260;2023-03-03T05:33:42;94604.47;;;5.97;100.00
12785;BME280;6456;42.680;23.260;2023-03-03T05:36:09;94507.47;;;5.29;100.00
12785;BME280;6456;42.680;23.260;2023-03-03T05:38:36;94591.91;;;5.86;100.00
12785;BME280;6456;42.680;23.260;2023-03-03T05:41:03;94607.19;;;5.89;100.00
12785;BME280;6456;42.680;23.260;2023-03-03T05:43:32;94595.00;;;5.81;100.00
12785;BME280;6456;42.680;23.260;2023-03-03T05:45:59;94589.81;;;5.67;100.00
12785;BME280;6456;42.680;23.260;2023-03-03T05:48:26;94602.41;;;5.78;100.00
12785;BME280;6456;42.680;23.260;2023-03-03T05:50:56;94566.88;;;5.62;100.00
12785;BME280;6456;42.680;23.260;2023-03-03T05:53:23;94615.88;;;6.11;100.00
12785;BME280;6456;42.680;23.260;2023-03-03T05:55:50;94498.56;;;5.38;100.00
12785;BME280;6456;42.680;23.260;2023-03-03T05:58:17;94619.59;;;6.23;100.00
12785;BME280;6456;42.680;23.260;2023-03-03T06:00:44;94594.66;;;6.20;100.00
12785;BME280;6456;42.680;23.260;2023-03-03T06:03:11;94614.63;;;6.28;100.00
12785;BME280;6456;42.680;23.260;2023-03-03T06:05:37;94616.78;;;6.24;100.00
12785;BME280;6456;42.680;23.260;2023-03-03T06:08:06;94615.94;;;6.38;100.00
12785;BME280;6456;42.680;23.260;2023-03-03T06:10:33;94612.56;;;6.44;100.00
12785;BME280;6456;42.680;23.260;2023-03-03T06:12:59;94612.19;;;6.47;100.00
12785;BME280;6456;42.680;23.260;2023-03-03T06:15:27;94621.66;;;6.49;100.00
12785;BME280;6456;42.680;23.260;2023-03-03T06:17:53;94600.44;;;6.37;100.00
12785;BME280;6456;42.680;23.260;2023-03-03T06:20:20;94614.44;;;6.51;100.00
12785;BME280;6456;42.680;23.260;2023-03-03T06:22:47;94620.25;;;6.46;100.00
12785;BME280;6456;42.680;23.260;2023-03-03T06:25:15;94626.50;;;6.52;100.00
12785;BME280;6456;42.680;23.260;2023-03-03T06:27:42;94568.03;;;6.10;100.00
12785;BME280;6456;42.680;23.260;2023-03-03T06:30:10;94533.06;;;5.90;100.00
12785;BME280;6456;42.680;23.260;2023-03-03T06:32:38;94639.41;;;6.53;100.00
12785;BME280;6456;42.680;23.260;2023-03-03T06:35:05;94631.72;;;6.52;100.00
12785;BME280;6456;42.680;23.260;2023-03-03T06:37:32;94634.28;;;6.45;100.00
12785;BME280;6456;42.680;23.260;2023-03-03T06:39:59;94627.53;;;6.51;100.00
12785;BME280;6456;42.680;23.260;2023-03-03T06:42:27;94549.81;;;5.96;100.00
12785;BME280;6456;42.680;23.260;2023-03-03T06:44:54;94629.06;;;6.45;100.00
12785;BME280;6456;42.680;23.260;2023-03-03T06:47:21;94596.41;;;6.13;100.00
12785;BME280;6456;42.680;23.260;2023-03-03T06:49:48;94621.44;;;6.43;100.00
12785;BME280;6456;42.680;23.260;2023-03-03T06:52:19;94640.22;;;6.54;100.00
12785;BME280;6456;42.680;23.260;2023-03-03T06:54:52;94638.97;;;6.50;100.00
12785;BME280;6456;42.680;23.260;2023-03-03T06:57:24;94634.75;;;6.49;100.00
12785;BME280;6456;42.680;23.260;2023-03-03T06:59:55;94612.69;;;6.36;100.00
12785;BME280;6456;42.680;23.260;2023-03-03T07:02:22;94636.66;;;6.40;100.00
12785;BME280;6456;42.680;23.260;2023-03-03T07:04:49;94633.84;;;6.41;100.00
12785;BME280;6456;42.680;23.260;2023-03-03T07:07:19;94640.59;;;6.51;100.00
12785;BME280;6456;42.680;23.260;2023-03-03T07:09:48;94640.59;;;6.51;100.00
12785;BME280;6456;42.680;23.260;2023-03-03T07:12:18;94640.84;;;6.56;100.00
12785;BME280;6456;42.680;23.260;2023-03-03T07:14:47;94620.09;;;6.33;100.00
12785;BME280;6456;42.680;23.260;2023-03-03T07:17:23;94632.88;;;6.42;100.00
12785;BME280;6456;42.680;23.260;2023-03-03T07:19:50;94643.19;;;6.51;100.00
12785;BME280;6456;42.680;23.260;2023-03-03T07:22:18;94638.28;;;6.41;100.00
12785;BME280;6456;42.680;23.260;2023-03-03T07:24:46;94643.19;;;6.51;100.00
12785;BME280;6456;42.680;23.260;2023-03-03T07:27:18;94628.69;;;6.48;100.00
12785;BME280;6456;42.680;23.260;2023-03-03T07:29:49;94607.28;;;6.38;100.00
12785;BME280;6456;42.680;23.260;2023-03-03T07:32:34;94636.91;;;6.66;100.00
12785;BME280;6456;42.680;23.260;2023-03-03T07:35:29;94579.13;;;6.33;100.00
12785;BME280;6456;42.680;23.260;2023-03-03T07:38:01;94633.66;;;6.64;100.00
12785;BME280;6456;42.680;23.260;2023-03-03T07:40:34;94588.38;;;6.36;100.00
12785;BME280;6456;42.680;23.260;2023-03-03T07:43:20;94627.34;;;6.80;100.00
12785;BME280;6456;42.680;23.260;2023-03-03T07:45:52;94542.91;;;6.30;100.00
12785;BME280;6456;42.680;23.260;2023-03-03T07:48:24;94582.25;;;6.71;100.00
12785;BME280;6456;42.680;23.260;2023-03-03T07:50:52;94566.50;;;6.65;100.00
12785;BME280;6456;42.680;23.260;2023-03-03T07:53:25;94467.75;;;6.11;100.00
12785;BME280;6456;42.680;23.260;2023-03-03T07:55:52;94624.66;;;7.22;100.00
12785;BME280;6456;42.680;23.260;2023-03-03T07:58:21;94474.72;;;6.25;100.00
12785;BME280;6456;42.680;23.260;2023-03-03T08:03:50;94622.19;;;7.48;100.00
12785;BME280;6456;42.680;23.260;2023-03-03T08:06:30;94475.69;;;6.45;100.00
12785;BME280;6456;42.680;23.260;2023-03-03T08:09:01;94517.16;;;6.83;100.00
12785;BME280;6456;42.680;23.260;2023-03-03T08:11:41;94574.53;;;7.19;100.00
12785;BME280;6456;42.680;23.260;2023-03-03T08:14:15;94621.75;;;7.45;100.00
12785;BME280;6456;42.680;23.260;2023-03-03T08:16:43;94568.47;;;7.18;100.00
12785;BME280;6456;42.680;23.260;2023-03-03T08:19:14;94629.66;;;7.51;100.00
12785;BME280;6456;42.680;23.260;2023-03-03T08:21:42;94545.22;;;7.02;100.00
12785;BME280;6456;42.680;23.260;2023-03-03T08:24:09;94635.13;;;7.56;100.00
12785;BME280;6456;42.680;23.260;2023-03-03T08:26:36;94599.63;;;7.47;100.00
12785;BME280;6456;42.680;23.260;2023-03-03T08:29:03;94544.53;;;7.21;100.00
12785;BME280;6456;42.680;23.260;2023-03-03T08:31:30;94567.75;;;7.37;100.00
12785;BME280;6456;42.680;23.260;2023-03-03T08:33:57;94611.84;;;7.74;100.00
12785;BME280;6456;42.680;23.260;2023-03-03T08:36:25;94612.63;;;7.68;100.00
12785;BME280;6456;42.680;23.260;2023-03-03T08:38:52;94545.38;;;7.28;100.00
12785;BME280;6456;42.680;23.260;2023-03-03T08:41:19;94593.91;;;7.71;100.00
12785;BME280;6456;42.680;23.260;2023-03-03T08:43:46;94629.84;;;7.91;100.00
12785;BME280;6456;42.680;23.260;2023-03-03T08:46:13;94591.53;;;7.90;100.00
12785;BME280;6456;42.680;23.260;2023-03-03T08:48:40;94610.78;;;8.16;100.00
12785;BME280;6456;42.680;23.260;2023-03-03T08:51:07;94614.63;;;8.14;100.00
12785;BME280;6456;42.680;23.260;2023-03-03T08:53:36;94617.28;;;8.27;100.00
12785;BME280;6456;42.680;23.260;2023-03-03T08:56:03;94603.16;;;8.21;100.00
12785;BME280;6456;42.680;23.260;2023-03-03T08:58:31;94612.47;;;8.37;100.00
12785;BME280;6456;42.680;23.260;2023-03-03T09:00:58;94542.19;;;8.00;100.00
12785;BME280;6456;42.680;23.260;2023-03-03T09:03:25;94619.97;;;8.60;100.00
12785;BME280;6456;42.680;23.260;2023-03-03T09:05:52;94511.56;;;7.94;100.00
12785;BME280;6456;42.680;23.260;2023-03-03T09:08:19;94635.13;;;8.77;100.00
12785;BME280;6456;42.680;23.260;2023-03-03T09:10:47;94467.03;;;7.94;100.00
12785;BME280;6456;42.680;23.260;2023-03-03T09:13:16;94617.97;;;8.81;100.00
12785;BME280;6456;42.680;23.260;2023-03-03T09:15:44;94607.44;;;8.62;100.00
12785;BME280;6456;42.680;23.260;2023-03-03T09:18:16;94600.00;;;8.72;100.00
12785;BME280;6456;42.680;23.260;2023-03-03T09:20:47;94588.91;;;8.63;100.00
12785;BME280;6456;42.680;23.260;2023-03-03T09:23:27;94462.56;;;7.88;100.00
12785;BME280;6456;42.680;23.260;2023-03-03T09:25:57;94542.28;;;8.32;100.00
12785;BME280;6456;42.680;23.260;2023-03-03T09:28:27;94613.50;;;8.62;100.00
12785;BME280;6456;42.680;23.260;2023-03-03T09:30:57;94619.16;;;8.53;100.00
12785;BME280;6456;42.680;23.260;2023-03-03T09:33:27;94470.56;;;7.60;100.00
12785;BME280;6456;42.680;23.260;2023-03-03T09:36:00;94574.69;;;8.25;100.00
12785;BME280;6456;42.680;23.260;2023-03-03T09:38:30;94550.25;;;7.98;100.00
12785;BME280;6456;42.680;23.260;2023-03-03T09:47:32;94615.09;;;8.37;100.00
12785;BME280;6456;42.680;23.260;2023-03-03T09:50:09;94541.75;;;7.90;100.00
12785;BME280;6456;42.680;23.260;2023-03-03T09:52:41;94550.66;;;7.95;100.00
12785;BME280;6456;42.680;23.260;2023-03-03T09:55:24;94613.66;;;8.34;100.00
12785;BME280;6456;42.680;23.260;2023-03-03T09:58:05;94617.75;;;8.44;100.00
12785;BME280;6456;42.680;23.260;2023-03-03T10:00:45;94542.41;;;8.05;100.00
12785;BME280;6456;42.680;23.260;2023-03-03T10:03:42;94607.03;;;8.45;100.00
12785;BME280;6456;42.680;23.260;2023-03-03T10:06:20;94609.16;;;8.22;100.00
12785;BME280;6456;42.680;23.260;2023-03-03T10:09:00;94607.91;;;8.05;100.00
12785;BME280;6456;42.680;23.260;2023-03-03T10:11:37;94598.56;;;7.83;100.00
12785;BME280;6456;42.680;23.260;2023-03-03T10:14:32;94596.19;;;7.88;100.00
12785;BME280;6456;42.680;23.260;2023-03-03T10:17:20;94572.00;;;7.86;100.00
12785;BME280;6456;42.680;23.260;2023-03-03T10:19:56;94603.94;;;8.22;100.00
12785;BME280;6456;42.680;23.260;2023-03-03T10:22:33;94531.66;;;7.73;100.00
12785;BME280;6456;42.680;23.260;2023-03-03T10:25:19;94603.19;;;8.28;100.00
12785;BME280;6456;42.680;23.260;2023-03-03T10:30:43;94549.97;;;7.67;100.00
12785;BME280;6456;42.680;23.260;2023-03-03T10:33:20;94589.78;;;8.03;100.00
12785;BME280;6456;42.680;23.260;2023-03-03T10:36:02;94563.03;;;7.67;100.00
12785;BME280;6456;42.680;23.260;2023-03-03T10:38:54;94580.41;;;7.74;100.00
12785;BME280;6456;42.680;23.260;2023-03-03T10:41:49;94566.25;;;7.62;100.00
12785;BME280;6456;42.680;23.260;2023-03-03T10:44:29;94588.84;;;7.63;100.00
12785;BME280;6456;42.680;23.260;2023-03-03T10:47:20;94546.22;;;7.35;100.00
12785;BME280;6456;42.680;23.260;2023-03-03T10:49:58;94587.41;;;7.61;100.00
12785;BME280;6456;42.680;23.260;2023-03-03T10:52:37;94478.56;;;6.91;100.00
12785;BME280;6456;42.680;23.260;2023-03-03T10:55:37;94564.22;;;7.51;100.00
12785;BME280;6456;42.680;23.260;2023-03-03T10:58:44;94563.41;;;7.51;100.00
12785;BME280;6456;42.680;23.260;2023-03-03T11:01:20;94552.84;;;7.31;100.00
12785;BME280;6456;42.680;23.260;2023-03-03T11:04:02;94511.22;;;7.02;100.00
12785;BME280;6456;42.680;23.260;2023-03-03T11:06:41;94556.31;;;7.45;100.00
12785;BME280;6456;42.680;23.260;2023-03-03T11:09:14;94561.84;;;7.63;100.00
12785;BME280;6456;42.680;23.260;2023-03-03T11:11:49;94412.53;;;6.83;100.00
12785;BME280;6456;42.680;23.260;2023-03-03T11:14:25;94538.91;;;7.71;100.00
12785;BME280;6456;42.680;23.260;2023-03-03T11:16:59;94464.19;;;7.22;100.00
12785;BME280;6456;42.680;23.260;2023-03-03T11:19:39;94549.78;;;7.68;100.00
12785;BME280;6456;42.680;23.260;2023-03-03T11:22:25;94476.75;;;7.39;100.00
12785;BME280;6456;42.680;23.260;2023-03-03T11:25:04;94474.72;;;7.35;100.00
12785;BME280;6456;42.680;23.260;2023-03-03T11:30:45;94508.91;;;7.20;100.00
12785;BME280;6456;42.680;23.260;2023-03-03T11:33:20;94542.84;;;7.54;100.00
12785;BME280;6456;42.680;23.260;2023-03-03T11:35:52;94390.41;;;6.79;100.00
12785;BME280;6456;42.680;23.260;2023-03-03T11:38:33;94543.41;;;7.91;100.00
12785;BME280;6456;42.680;23.260;2023-03-03T11:41:11;94537.34;;;7.90;100.00
12785;BME280;6456;42.680;23.260;2023-03-03T11:43:43;94536.53;;;7.83;100.00
12785;BME280;6456;42.680;23.260;2023-03-03T11:46:14;94443.09;;;7.30;100.00
12785;BME280;6456;42.680;23.260;2023-03-03T11:48:47;94480.81;;;7.48;100.00
12785;BME280;6456;42.680;23.260;2023-03-03T11:51:20;94480.56;;;7.30;100.00
12785;BME280;6456;42.680;23.260;2023-03-03T11:53:56;94536.34;;;7.91;100.00
12785;BME280;6456;42.680;23.260;2023-03-03T11:56:27;94489.34;;;7.76;100.00
12785;BME280;6456;42.680;23.260;2023-03-03T11:59:13;94508.25;;;7.65;100.00
12785;BME280;6456;42.680;23.260;2023-03-03T12:01:46;94500.97;;;7.54;100.00
12785;BME280;6456;42.680;23.260;2023-03-03T12:04:18;94462.06;;;7.38;100.00
12785;BME280;6456;42.680;23.260;2023-03-03T12:06:56;94465.84;;;7.29;100.00
12785;BME280;6456;42.680;23.260;2023-03-03T12:09:42;94513.13;;;7.68;100.00
12785;BME280;6456;42.680;23.260;2023-03-03T12:12:17;94517.97;;;7.85;100.00
12785;BME280;6456;42.680;23.260;2023-03-03T12:15:05;94510.94;;;7.92;100.00
12785;BME280;6456;42.680;23.260;2023-03-03T12:18:02;94470.19;;;7.56;100.00
12785;BME280;6456;42.680;23.260;2023-03-03T12:20:41;94537.72;;;7.74;100.00
12785;BME280;6456;42.680;23.260;2023-03-03T12:23:23;94532.25;;;7.69;100.00
12785;BME280;6456;42.680;23.260;2023-03-03T12:26:02;94532.66;;;7.72;100.00
12785;BME280;6456;42.680;23.260;2023-03-03T12:28:34;94531.63;;;7.60;100.00
12785;BME280;6456;42.680;23.260;2023-03-03T12:31:17;94466.56;;;7.03;100.00
12785;BME280;6456;42.680;23.260;2023-03-03T12:33:52;94518.38;;;7.21;100.00
12785;BME280;6456;42.680;23.260;2023-03-03T12:36:44;94534.84;;;7.22;100.00
12785;BME280;6456;42.680;23.260;2023-03-03T12:39:21;94533.06;;;7.22;100.00
12785;BME280;6456;42.680;23.260;2023-03-03T12:41:58;94533.88;;;7.23;100.00
12785;BME280;6456;42.680;23.260;2023-03-03T12:44:33;94516.19;;;6.90;100.00
12785;BME280;6456;42.680;23.260;2023-03-03T12:47:05;94540.13;;;6.94;100.00
12785;BME280;6456;42.680;23.260;2023-03-03T12:49:48;94508.22;;;6.71;100.00
12785;BME280;6456;42.680;23.260;2023-03-03T12:52:23;94534.38;;;7.05;100.00
12785;BME280;6456;42.680;23.260;2023-03-03T12:55:04;94492.06;;;6.61;100.00
12785;BME280;6456;42.680;23.260;2023-03-03T12:57:42;94530.00;;;6.78;100.00
12785;BME280;6456;42.680;23.260;2023-03-03T13:00:27;94519.53;;;6.78;100.00
12785;BME280;6456;42.680;23.260;2023-03-03T13:03:08;94509.03;;;6.71;100.00
12785;BME280;6456;42.680;23.260;2023-03-03T13:05:48;94534.00;;;6.74;100.00
12785;BME280;6456;42.680;23.260;2023-03-03T13:08:24;94481.94;;;6.23;100.00
12785;BME280;6456;42.680;23.260;2023-03-03T13:11:00;94463.88;;;6.01;100.00
12785;BME280;6456;42.680;23.260;2023-03-03T13:13:39;94533.09;;;6.39;100.00
12785;BME280;6456;42.680;23.260;2023-03-03T13:16:10;94430.88;;;5.93;100.00
12785;BME280;6456;42.680;23.260;2023-03-03T13:18:48;94445.44;;;6.09;100.00
12785;BME280;6456;42.680;23.260;2023-03-03T13:21:20;94438.03;;;6.12;100.00
12785;BME280;6456;42.680;23.260;2023-03-03T13:24:02;94522.91;;;6.72;100.00
12785;BME280;6456;42.680;23.260;2023-03-03T13:26:35;94433.19;;;6.37;100.00
12785;BME280;6456;42.680;23.260;2023-03-03T13:29:12;94441.69;;;6.45;100.00
12785;BME280;6456;42.680;23.260;2023-03-03T13:31:45;94468.03;;;6.78;100.00
12785;BME280;6456;42.680;23.260;2023-03-03T13:34:22;94449.13;;;6.76;100.00
12785;BME280;6456;42.680;23.260;2023-03-03T13:36:53;94466.84;;;6.81;100.00
12785;BME280;6456;42.680;23.260;2023-03-03T13:39:25;94515.75;;;7.21;100.00